createdAt,value
2022-12-03T00:00:40.926Z,3.90
2022-12-03T00:03:07.908Z,3.90
2022-12-03T00:05:34.954Z,3.90
2022-12-03T00:08:01.921Z,3.90
2022-12-03T00:10:28.813Z,3.90
2022-12-03T00:12:55.737Z,3.90
2022-12-03T00:15:22.634Z,3.90
2022-12-03T00:17:49.597Z,3.90
2022-12-03T00:20:22.273Z,3.80
2022-12-03T00:22:50.284Z,3.80
2022-12-03T00:25:17.695Z,3.80
2022-12-03T00:27:44.747Z,3.80
2022-12-03T00:30:12.532Z,3.80
2022-12-03T00:32:39.509Z,3.80
2022-12-03T00:35:06.820Z,3.80
2022-12-03T00:37:35.311Z,3.80
2022-12-03T00:40:04.060Z,3.70
2022-12-03T00:42:31.007Z,3.70
2022-12-03T00:44:57.850Z,3.70
2022-12-03T00:47:24.700Z,3.70
2022-12-03T00:49:51.639Z,3.70
2022-12-03T00:52:18.574Z,3.70
2022-12-03T00:54:45.669Z,3.70
2022-12-03T00:57:12.624Z,3.70
2022-12-03T00:59:39.495Z,3.70
2022-12-03T01:02:06.454Z,3.70
2022-12-03T01:04:34.024Z,3.70
2022-12-03T01:07:01.274Z,3.70
2022-12-03T01:09:28.115Z,3.70
2022-12-03T01:11:54.977Z,3.70
2022-12-03T01:14:22.089Z,3.70
2022-12-03T01:16:49.215Z,3.70
2022-12-03T01:19:17.224Z,3.70
2022-12-03T01:21:52.025Z,3.70
2022-12-03T01:24:19.897Z,3.70
2022-12-03T01:26:46.835Z,3.70
2022-12-03T01:29:14.599Z,3.70
2022-12-03T01:32:12.312Z,3.70
2022-12-03T01:34:53.223Z,3.70
2022-12-03T01:37:22.849Z,3.70
2022-12-03T01:39:50.029Z,3.60
2022-12-03T01:42:22.389Z,3.70
2022-12-03T01:44:54.376Z,3.60
2022-12-03T01:47:26.787Z,3.60
2022-12-03T01:49:57.306Z,3.60
2022-12-03T01:52:31.399Z,3.60
2022-12-03T01:55:05.182Z,3.70
2022-12-03T01:57:48.520Z,3.70
2022-12-03T02:00:27.186Z,3.70
2022-12-03T02:02:58.050Z,3.70
2022-12-03T02:05:31.806Z,3.70
2022-12-03T02:07:59.842Z,3.70
2022-12-03T02:10:38.530Z,3.70
2022-12-03T02:13:11.066Z,3.70
2022-12-03T02:15:41.202Z,3.70
2022-12-03T02:18:09.586Z,3.70
2022-12-03T02:20:46.849Z,3.70
2022-12-03T02:23:26.195Z,3.70
2022-12-03T02:25:54.117Z,3.70
2022-12-03T02:28:21.109Z,3.70
2022-12-03T02:31:05.379Z,3.70
2022-12-03T02:33:32.721Z,3.70
2022-12-03T02:36:04.083Z,3.70
2022-12-03T02:38:36.315Z,3.70
2022-12-03T02:41:11.162Z,3.70
2022-12-03T02:43:42.199Z,3.70
2022-12-03T02:46:15.340Z,3.70
2022-12-03T02:48:42.327Z,3.70
2022-12-03T02:51:12.410Z,3.70
2022-12-03T02:53:44.603Z,3.70
2022-12-03T02:56:18.513Z,3.70
2022-12-03T02:58:52.253Z,3.70
2022-12-03T03:01:21.367Z,3.70
2022-12-03T03:03:51.438Z,3.70
2022-12-03T03:06:21.744Z,3.70
2022-12-03T03:08:51.857Z,3.70
2022-12-03T03:11:21.989Z,3.70
2022-12-03T03:13:51.998Z,3.70
2022-12-03T03:16:21.088Z,3.70
2022-12-03T03:18:48.818Z,3.70
2022-12-03T03:21:15.822Z,3.70
2022-12-03T03:23:43.766Z,3.70
2022-12-03T03:26:13.348Z,3.70
2022-12-03T03:28:47.903Z,3.60
2022-12-03T03:31:18.740Z,3.60
2022-12-03T03:33:49.629Z,3.60
2022-12-03T03:36:18.293Z,3.60
2022-12-03T03:38:47.266Z,3.60
2022-12-03T03:41:15.898Z,3.60
2022-12-03T03:43:44.410Z,3.60
2022-12-03T03:46:15.548Z,3.60
2022-12-03T03:48:44.173Z,3.60
2022-12-03T03:51:12.574Z,3.60
2022-12-03T03:53:48.042Z,3.70
2022-12-03T03:56:20.655Z,3.60
2022-12-03T03:58:48.685Z,3.60
2022-12-03T04:01:18.185Z,3.60
2022-12-03T04:03:48.259Z,3.60
2022-12-03T04:06:18.430Z,3.60
2022-12-03T04:08:48.440Z,3.60
2022-12-03T04:11:33.820Z,3.60
2022-12-03T04:14:00.765Z,3.60
2022-12-03T04:16:28.875Z,3.60
2022-12-03T04:18:58.998Z,3.60
2022-12-03T04:21:53.598Z,3.60
2022-12-03T04:24:23.523Z,3.60
2022-12-03T04:27:12.006Z,3.50
2022-12-03T04:29:38.923Z,3.50
2022-12-03T04:32:24.367Z,3.50
2022-12-03T04:35:12.768Z,3.60
2022-12-03T04:37:42.851Z,3.60
2022-12-03T04:40:30.173Z,3.60
2022-12-03T04:43:02.888Z,3.50
2022-12-03T04:45:30.099Z,3.50
2022-12-03T04:47:57.227Z,3.50
2022-12-03T04:50:25.185Z,3.50
2022-12-03T04:52:53.177Z,3.50
2022-12-03T04:55:26.231Z,3.50
2022-12-03T04:57:54.239Z,3.50
2022-12-03T05:00:21.118Z,3.50
2022-12-03T05:02:48.138Z,3.50
2022-12-03T05:05:27.410Z,3.40
2022-12-03T05:07:56.421Z,3.40
2022-12-03T05:10:24.387Z,3.40
2022-12-03T05:12:52.380Z,3.40
2022-12-03T05:15:19.322Z,3.40
2022-12-03T05:17:48.293Z,3.40
2022-12-03T05:20:36.563Z,3.50
2022-12-03T05:23:10.730Z,3.50
2022-12-03T05:25:40.793Z,3.50
2022-12-03T05:28:08.644Z,3.50
2022-12-03T05:30:35.695Z,3.50
2022-12-03T05:33:02.657Z,3.50
2022-12-03T05:35:33.207Z,3.50
2022-12-03T05:38:00.211Z,3.50
2022-12-03T05:40:29.155Z,3.50
2022-12-03T05:43:06.368Z,3.50
2022-12-03T05:45:36.833Z,3.50
2022-12-03T05:48:11.614Z,3.50
2022-12-03T05:50:41.562Z,3.50
2022-12-03T05:53:16.322Z,3.60
2022-12-03T05:55:45.301Z,3.50
2022-12-03T05:58:15.531Z,3.50
2022-12-03T06:00:45.486Z,3.50
2022-12-03T06:03:15.465Z,3.50
2022-12-03T06:05:44.553Z,3.50
2022-12-03T06:08:12.517Z,3.50
2022-12-03T06:10:39.420Z,3.50
2022-12-03T06:13:09.418Z,3.50
2022-12-03T06:15:43.304Z,3.50
2022-12-03T06:18:14.133Z,3.50
2022-12-03T06:20:44.057Z,3.50
2022-12-03T06:23:14.104Z,3.50
2022-12-03T06:25:41.996Z,3.50
2022-12-03T06:28:12.003Z,3.50
2022-12-03T06:30:40.190Z,3.50
2022-12-03T06:33:10.235Z,3.50
2022-12-03T06:35:38.214Z,3.50
2022-12-03T06:38:08.239Z,3.50
2022-12-03T06:40:38.326Z,3.50
2022-12-03T06:43:06.345Z,3.50
2022-12-03T06:45:36.361Z,3.50
2022-12-03T06:48:03.566Z,3.50
2022-12-03T06:50:32.566Z,3.50
2022-12-03T06:53:05.548Z,3.50
2022-12-03T06:55:32.412Z,3.50
2022-12-03T06:58:01.385Z,3.50
2022-12-03T07:00:28.312Z,3.50
2022-12-03T07:02:56.304Z,3.50
2022-12-03T07:05:26.403Z,3.50
2022-12-03T07:07:55.569Z,3.50
2022-12-03T07:10:23.745Z,3.50
2022-12-03T07:12:52.629Z,3.50
2022-12-03T07:15:22.781Z,3.50
2022-12-03T07:17:51.235Z,3.50
2022-12-03T07:20:24.104Z,3.50
2022-12-03T07:22:52.032Z,3.50
2022-12-03T07:25:23.104Z,3.50
2022-12-03T07:27:52.799Z,3.50
2022-12-03T07:30:24.361Z,3.50
2022-12-03T07:32:51.377Z,3.50
2022-12-03T07:35:19.601Z,3.50
2022-12-03T07:37:46.962Z,3.50
2022-12-03T07:40:14.487Z,3.50
2022-12-03T07:42:44.453Z,3.50
2022-12-03T07:45:14.630Z,3.50
2022-12-03T07:47:43.480Z,3.50
2022-12-03T07:50:11.878Z,3.60
2022-12-03T07:52:38.721Z,3.60
2022-12-03T07:55:09.885Z,3.60
2022-12-03T07:57:36.782Z,3.60
2022-12-03T08:00:05.743Z,3.60
2022-12-03T08:02:32.791Z,3.60
2022-12-03T08:04:59.833Z,3.60
2022-12-03T08:07:27.762Z,3.60
2022-12-03T08:09:58.091Z,3.60
2022-12-03T08:12:45.729Z,3.70
2022-12-03T08:15:20.383Z,3.70
2022-12-03T08:17:54.571Z,3.70
2022-12-03T08:20:35.112Z,3.70
2022-12-03T08:23:07.312Z,3.70
2022-12-03T08:25:37.227Z,3.70
2022-12-03T08:28:28.674Z,3.70
2022-12-03T08:31:05.850Z,3.70
2022-12-03T08:33:35.496Z,3.70
2022-12-03T08:36:23.753Z,3.70
2022-12-03T08:38:55.945Z,3.70
2022-12-03T08:41:42.814Z,3.70
2022-12-03T08:44:26.020Z,3.70
2022-12-03T08:47:24.383Z,3.70
2022-12-03T08:49:55.909Z,3.70
2022-12-03T08:52:31.961Z,3.70
2022-12-03T08:55:02.917Z,3.70
2022-12-03T08:57:33.169Z,3.80
2022-12-03T09:00:15.817Z,3.70
2022-12-03T09:02:54.468Z,3.70
2022-12-03T09:05:34.920Z,3.80
2022-12-03T09:08:05.017Z,3.80
2022-12-03T09:10:31.930Z,3.80
2022-12-03T09:12:58.911Z,3.80
2022-12-03T09:15:28.477Z,3.80
2022-12-03T09:17:55.503Z,3.80
2022-12-03T09:20:25.455Z,3.80
2022-12-03T09:22:55.480Z,3.80
2022-12-03T09:25:25.486Z,3.80
2022-12-03T09:27:55.461Z,3.80
2022-12-03T09:30:23.523Z,3.80
2022-12-03T09:32:53.578Z,3.90
2022-12-03T09:35:23.709Z,3.90
2022-12-03T09:37:52.623Z,3.90
2022-12-03T09:40:22.608Z,3.90
2022-12-03T09:42:52.050Z,3.90
2022-12-03T09:45:22.037Z,3.90
2022-12-03T09:47:51.230Z,3.90
2022-12-03T09:50:25.632Z,3.90
2022-12-03T09:52:58.589Z,3.90
2022-12-03T09:55:29.267Z,3.90
2022-12-03T09:57:57.953Z,3.90
2022-12-03T10:00:30.198Z,3.90
2022-12-03T10:03:03.130Z,3.90
2022-12-03T10:05:36.111Z,3.90
2022-12-03T10:08:12.526Z,3.90
2022-12-03T10:10:57.088Z,4.00
2022-12-03T10:13:28.638Z,4.00
2022-12-03T10:16:00.604Z,4.00
2022-12-03T10:18:41.532Z,3.90
2022-12-03T10:21:19.227Z,4.00
2022-12-03T10:23:55.089Z,4.00
2022-12-03T10:26:39.306Z,4.00
2022-12-03T10:29:13.458Z,4.00
2022-12-03T10:31:41.626Z,4.00
2022-12-03T10:34:10.139Z,3.90
2022-12-03T10:36:37.186Z,3.80
2022-12-03T10:39:15.430Z,3.90
2022-12-03T10:41:44.486Z,4.00
2022-12-03T10:44:21.187Z,4.00
2022-12-03T10:47:06.963Z,3.90
2022-12-03T10:49:34.395Z,4.00
2022-12-03T10:52:02.186Z,4.00
2022-12-03T10:54:31.399Z,3.90
2022-12-03T10:56:58.510Z,4.00
2022-12-03T10:59:29.343Z,3.90
2022-12-03T11:01:56.324Z,4.00
2022-12-03T11:04:31.844Z,4.00
2022-12-03T11:06:59.055Z,4.00
2022-12-03T11:09:29.957Z,4.00
2022-12-03T11:12:03.519Z,4.10
2022-12-03T11:14:55.361Z,4.10
2022-12-03T11:17:25.541Z,4.10
2022-12-03T11:19:53.535Z,4.10
2022-12-03T11:22:39.700Z,4.10
2022-12-03T11:25:28.520Z,4.10
2022-12-03T11:28:14.507Z,4.10
2022-12-03T11:30:56.650Z,4.10
2022-12-03T11:33:35.728Z,4.10
2022-12-03T11:36:05.708Z,4.10
2022-12-03T11:38:41.026Z,4.20
2022-12-03T11:41:20.025Z,4.20
2022-12-03T11:43:57.790Z,4.20
2022-12-03T11:46:36.940Z,4.20
2022-12-03T11:49:25.500Z,4.20
2022-12-03T11:51:54.626Z,4.30
2022-12-03T11:54:24.393Z,4.30
2022-12-03T11:56:56.129Z,4.30
2022-12-03T11:59:23.725Z,4.20
2022-12-03T12:01:54.988Z,4.20
2022-12-03T12:04:35.068Z,4.20
2022-12-03T12:07:04.349Z,4.20
2022-12-03T12:09:54.662Z,4.20
2022-12-03T12:12:40.973Z,4.20
2022-12-03T12:15:43.730Z,4.20
2022-12-03T12:18:41.552Z,4.20
2022-12-03T12:21:50.067Z,4.20
2022-12-03T12:24:36.645Z,4.20
2022-12-03T12:27:09.713Z,4.20
2022-12-03T12:29:38.781Z,4.30
2022-12-03T12:32:15.622Z,4.30
2022-12-03T12:34:50.669Z,4.30
2022-12-03T12:37:25.564Z,4.30
2022-12-03T12:39:56.233Z,4.30
2022-12-03T12:42:38.947Z,4.20
2022-12-03T12:45:13.522Z,4.20
2022-12-03T12:48:08.446Z,4.20
2022-12-03T12:50:36.936Z,4.20
2022-12-03T12:53:20.770Z,4.20
2022-12-03T12:55:59.887Z,4.20
2022-12-03T12:58:31.507Z,4.20
2022-12-03T13:01:05.124Z,4.10
2022-12-03T13:03:37.087Z,4.20
2022-12-03T13:06:05.437Z,4.10
2022-12-03T13:08:53.914Z,4.20
2022-12-03T13:11:37.182Z,4.10
2022-12-03T13:14:20.406Z,4.10
2022-12-03T13:16:48.929Z,4.10
2022-12-03T13:19:26.525Z,4.10
2022-12-03T13:21:56.367Z,4.10
2022-12-03T13:24:34.054Z,4.10
2022-12-03T13:27:26.041Z,4.10
2022-12-03T13:30:13.859Z,4.20
2022-12-03T13:32:42.570Z,4.20
2022-12-03T13:35:18.714Z,4.20
2022-12-03T13:37:45.647Z,4.20
2022-12-03T13:40:27.302Z,4.20
2022-12-03T13:42:55.025Z,4.20
2022-12-03T13:45:24.725Z,4.20
2022-12-03T13:47:58.294Z,4.20
2022-12-03T13:50:41.881Z,4.20
2022-12-03T13:53:11.853Z,4.20
2022-12-03T13:55:42.071Z,4.20
2022-12-03T13:58:09.245Z,4.20
2022-12-03T14:00:36.184Z,4.20
2022-12-03T14:03:03.139Z,4.10
2022-12-03T14:05:30.067Z,4.10
2022-12-03T14:07:58.645Z,4.10
2022-12-03T14:10:25.586Z,4.00
2022-12-03T14:12:52.466Z,4.00
2022-12-03T14:15:19.322Z,4.00
2022-12-03T14:17:46.201Z,4.00
2022-12-03T14:20:14.849Z,4.00
2022-12-03T14:22:41.710Z,4.00
2022-12-03T14:25:08.987Z,3.90
2022-12-03T14:27:35.851Z,3.90
2022-12-03T14:30:03.057Z,3.90
2022-12-03T14:32:30.990Z,3.90
2022-12-03T14:34:57.829Z,3.90
2022-12-03T14:37:24.731Z,3.90
2022-12-03T14:39:51.845Z,3.80
2022-12-03T14:42:19.079Z,3.90
2022-12-03T14:44:48.049Z,3.90
2022-12-03T14:47:17.092Z,3.90
2022-12-03T14:49:44.127Z,3.80
2022-12-03T14:52:12.693Z,3.80
2022-12-03T14:54:42.650Z,3.80
2022-12-03T14:57:14.237Z,3.80
2022-12-03T14:59:45.183Z,3.70
2022-12-03T15:02:13.072Z,3.70
2022-12-03T15:04:41.063Z,3.70
2022-12-03T15:07:08.889Z,3.70
2022-12-03T15:09:35.840Z,3.70
2022-12-03T15:12:02.923Z,3.70
2022-12-03T15:14:29.813Z,3.70
2022-12-03T15:16:56.898Z,3.70
2022-12-03T15:19:23.881Z,3.70
2022-12-03T15:21:50.854Z,3.60
2022-12-03T15:24:17.805Z,3.60
2022-12-03T15:26:44.646Z,3.60
2022-12-03T15:29:11.624Z,3.60
2022-12-03T15:31:38.499Z,3.60
2022-12-03T15:34:05.414Z,3.60
2022-12-03T15:36:32.308Z,3.60
2022-12-03T15:38:59.261Z,3.60
2022-12-03T15:41:29.230Z,3.60
2022-12-03T15:43:59.452Z,3.50
2022-12-03T15:46:27.999Z,3.50
2022-12-03T15:48:55.880Z,3.50
2022-12-03T15:51:23.377Z,3.50
2022-12-03T15:53:50.503Z,3.50
2022-12-03T15:56:17.389Z,3.50
2022-12-03T15:58:44.475Z,3.50
2022-12-03T16:01:13.810Z,3.50
2022-12-03T16:03:41.603Z,3.50
2022-12-03T16:06:08.519Z,3.50
2022-12-03T16:08:35.588Z,3.50
2022-12-03T16:11:04.574Z,3.50
2022-12-03T16:13:31.554Z,3.50
2022-12-03T16:16:00.283Z,3.50
2022-12-03T16:18:27.294Z,3.60
2022-12-03T16:20:56.253Z,3.50
2022-12-03T16:23:23.314Z,3.50
2022-12-03T16:25:50.265Z,3.50
2022-12-03T16:28:22.206Z,3.50
2022-12-03T16:30:52.239Z,3.50
2022-12-03T16:33:27.232Z,3.50
2022-12-03T16:35:57.919Z,3.50
2022-12-03T16:38:24.967Z,3.50
2022-12-03T16:40:53.929Z,3.50
2022-12-03T16:43:23.850Z,3.40
2022-12-03T16:45:56.632Z,3.50
2022-12-03T16:48:26.903Z,3.50
2022-12-03T16:50:54.829Z,3.40
2022-12-03T16:53:24.935Z,3.40
2022-12-03T16:55:54.913Z,3.40
2022-12-03T16:58:25.226Z,3.40
2022-12-03T17:00:55.351Z,3.40
2022-12-03T17:03:24.924Z,3.40
2022-12-03T17:05:55.655Z,3.40
2022-12-03T17:08:25.632Z,3.40
2022-12-03T17:10:52.669Z,3.40
2022-12-03T17:13:23.287Z,3.40
2022-12-03T17:15:53.420Z,3.40
2022-12-03T17:18:21.023Z,3.40
2022-12-03T17:20:47.886Z,3.30
2022-12-03T17:23:17.794Z,3.30
2022-12-03T17:25:44.735Z,3.30
2022-12-03T17:28:17.709Z,3.20
2022-12-03T17:30:47.796Z,3.20
2022-12-03T17:33:15.782Z,3.20
2022-12-03T17:35:45.547Z,3.20
2022-12-03T17:38:16.505Z,3.20
2022-12-03T17:40:43.467Z,3.30
2022-12-03T17:43:11.490Z,3.30
2022-12-03T17:45:38.386Z,3.30
2022-12-03T17:48:06.570Z,3.30
2022-12-03T17:50:34.622Z,3.30
2022-12-03T17:53:07.914Z,3.30
2022-12-03T17:55:44.713Z,3.30
2022-12-03T17:58:14.056Z,3.30
2022-12-03T18:00:47.062Z,3.30
2022-12-03T18:03:17.179Z,3.30
2022-12-03T18:05:47.278Z,3.30
2022-12-03T18:08:17.315Z,3.30
2022-12-03T18:10:47.316Z,3.30
2022-12-03T18:13:17.406Z,3.30
2022-12-03T18:15:46.419Z,3.30
2022-12-03T18:18:16.899Z,3.30
2022-12-03T18:20:46.963Z,3.30
2022-12-03T18:23:16.950Z,3.30
2022-12-03T18:25:43.965Z,3.30
2022-12-03T18:28:10.955Z,3.20
2022-12-03T18:30:37.889Z,3.20
2022-12-03T18:33:07.897Z,3.30
2022-12-03T18:35:35.907Z,3.30
2022-12-03T18:38:05.079Z,3.30
2022-12-03T18:40:35.317Z,3.30
2022-12-03T18:43:16.307Z,3.30
2022-12-03T18:45:45.452Z,3.30
2022-12-03T18:48:19.018Z,3.30
2022-12-03T18:50:49.126Z,3.30
2022-12-03T18:53:18.242Z,3.30
2022-12-03T18:55:47.383Z,3.40
2022-12-03T18:58:14.246Z,3.30
2022-12-03T19:00:41.214Z,3.30
2022-12-03T19:03:08.189Z,3.30
2022-12-03T19:05:36.094Z,3.30
2022-12-03T19:08:04.039Z,3.30
2022-12-03T19:10:30.951Z,3.30
2022-12-03T19:12:57.953Z,3.30
2022-12-03T19:15:24.933Z,3.30
2022-12-03T19:17:52.897Z,3.30
2022-12-03T19:20:20.046Z,3.30
2022-12-03T19:22:46.941Z,3.40
2022-12-03T19:25:13.985Z,3.30
2022-12-03T19:27:40.906Z,3.30
2022-12-03T19:30:08.447Z,3.30
2022-12-03T19:32:35.589Z,3.30
2022-12-03T19:35:05.395Z,3.30
2022-12-03T19:37:35.408Z,3.30
2022-12-03T19:40:02.497Z,3.30
2022-12-03T19:42:31.289Z,3.30
2022-12-03T19:44:58.208Z,3.30
2022-12-03T19:47:25.572Z,3.30
2022-12-03T19:49:56.098Z,3.30
2022-12-03T19:52:23.395Z,3.30
2022-12-03T19:54:50.362Z,3.20
2022-12-03T19:57:23.099Z,3.30
2022-12-03T19:59:50.510Z,3.20
2022-12-03T20:02:17.557Z,3.20
2022-12-03T20:04:44.577Z,3.20
2022-12-03T20:07:11.596Z,3.20
2022-12-03T20:09:38.520Z,3.30
2022-12-03T20:12:05.530Z,3.30
2022-12-03T20:14:32.409Z,3.30
2022-12-03T20:16:59.404Z,3.30
2022-12-03T20:19:26.371Z,3.30
2022-12-03T20:21:56.397Z,3.30
2022-12-03T20:24:27.796Z,3.30
2022-12-03T20:26:54.731Z,3.30
2022-12-03T20:29:21.615Z,3.20
2022-12-03T20:31:48.590Z,3.30
2022-12-03T20:34:15.521Z,3.30
2022-12-03T20:36:44.282Z,3.30
2022-12-03T20:39:11.442Z,3.30
2022-12-03T20:41:38.370Z,3.20
2022-12-03T20:44:07.595Z,3.30
2022-12-03T20:46:35.431Z,3.20
2022-12-03T20:49:02.585Z,3.20
2022-12-03T20:51:31.217Z,3.20
2022-12-03T20:53:59.988Z,3.20
2022-12-03T20:56:34.130Z,3.20
2022-12-03T20:59:05.585Z,3.20
2022-12-03T21:01:32.801Z,3.20
2022-12-03T21:03:59.822Z,3.20
2022-12-03T21:06:30.022Z,3.20
2022-12-03T21:08:58.746Z,3.20
2022-12-03T21:11:29.778Z,3.20
2022-12-03T21:13:57.032Z,3.20
2022-12-03T21:16:46.055Z,3.20
2022-12-03T21:19:14.263Z,3.20
2022-12-03T21:21:41.182Z,3.20
2022-12-03T21:24:08.714Z,3.20
2022-12-03T21:26:35.546Z,3.20
2022-12-03T21:29:02.491Z,3.10
2022-12-03T21:31:31.873Z,3.10
2022-12-03T21:33:59.458Z,3.10
2022-12-03T21:36:26.496Z,3.10
2022-12-03T21:38:53.651Z,3.10
2022-12-03T21:41:20.758Z,3.20
2022-12-03T21:43:47.703Z,3.10
2022-12-03T21:47:12.280Z,3.10
2022-12-03T21:49:04.109Z,3.20
2022-12-03T21:51:31.145Z,3.20
2022-12-03T21:53:58.117Z,3.20
2022-12-03T21:56:25.063Z,3.20
2022-12-03T21:58:52.039Z,3.30
2022-12-03T22:01:22.403Z,3.20
2022-12-03T22:03:50.299Z,3.20
2022-12-03T22:06:17.467Z,3.20
2022-12-03T22:08:44.594Z,3.20
2022-12-03T22:11:23.180Z,3.20
2022-12-03T22:13:50.832Z,3.20
2022-12-03T22:16:20.250Z,3.20
2022-12-03T22:18:47.369Z,3.20
2022-12-03T22:21:17.092Z,3.20
2022-12-03T22:23:44.626Z,3.20
2022-12-03T22:26:14.948Z,3.20
2022-12-03T22:28:46.779Z,3.20
2022-12-03T22:31:14.560Z,3.20
2022-12-03T22:33:41.798Z,3.20
2022-12-03T22:36:18.079Z,3.20
2022-12-03T22:38:47.593Z,3.20
2022-12-03T22:41:15.073Z,3.10
2022-12-03T22:43:42.016Z,3.20
2022-12-03T22:46:12.359Z,3.20
2022-12-03T22:48:40.926Z,3.20
2022-12-03T22:51:20.388Z,3.20
2022-12-03T22:53:48.086Z,3.20
2022-12-03T22:56:16.067Z,3.20
2022-12-03T22:58:42.986Z,3.10
2022-12-03T23:01:10.045Z,3.20
2022-12-03T23:03:37.509Z,3.20
2022-12-03T23:06:11.510Z,3.20
2022-12-03T23:08:38.500Z,3.20
2022-12-03T23:11:06.943Z,3.10
2022-12-03T23:13:33.929Z,3.10
2022-12-03T23:16:01.914Z,3.20
2022-12-03T23:18:28.843Z,3.20
2022-12-03T23:20:57.420Z,3.20
2022-12-03T23:23:26.710Z,3.20
2022-12-03T23:26:05.947Z,3.10
2022-12-03T23:28:34.516Z,3.10
2022-12-03T23:31:02.085Z,3.20
2022-12-03T23:33:30.447Z,3.10
2022-12-03T23:35:59.854Z,3.10
2022-12-03T23:38:26.771Z,3.10
2022-12-03T23:40:53.654Z,3.10
2022-12-03T23:43:20.509Z,3.10
2022-12-03T23:45:47.353Z,3.10
2022-12-03T23:48:14.255Z,3.10
2022-12-03T23:50:41.517Z,3.10
2022-12-03T23:53:08.764Z,3.10
2022-12-03T23:55:39.913Z,3.00
2022-12-03T23:58:06.826Z,3.00
